Terminal Aerodrome Forecast
Issued by NWS Portland, ME

Home | Current Version | Previous Version | Text Only | Print | Product List | Glossary On
Versions: 1 2 3 4 5 6 7 8 9 10 11 12 13 14 15 16 17
000
FTUS41 KGYX 011120
TAFCON
TAF
KCON 011120Z 0112/0212 36004KT P6SM -SHRA OVC025
     FM011400 03007KT 6SM -SHRA BR OVC025
     FM020000 01004KT P6SM SCT007 OVC015=

USA.gov is the U.S. government's official web portal to all federal, state and local government web resources and services.